Latest Weather Observations for Montague Island

IDN60901

Issued at 12:15 pm EST Thursday 24 July 2014 (issued every 10 minutes, with the page automatically refreshed every 10 minutes)

About weather observations | Map of Canberra area stations | Latest observations for Canberra area | Other Formats
Station Details ID: 069017 Name: MONTAGUE ISLAND LIGHTHOUSE Lat: -36.25 Lon: 150.23 Height: 52.0 m
Data from the previous 72 hours. | See also: Recent months at Montague Island
Date/Time
EST
Tmp

°C
App
Tmp
°C
Dew
Point
°C
Rel
Hum
%
Delta-T

°C
Wind Press
QNH
hPa
Press
MSL
hPa
Rain
since
9 am
mm
Dir
 
Spd
km/h
Gust
km/h
Spd
kts
Gust
kts
24/12:00pm 14.3 10.7 10.5 78 2.0 NNE 20 28 11 15 1019.2 1019.2 0.0
24/11:30am 13.6 10.7 9.5 76 2.1 N 15 20 8 11 1019.9 - 0.0
24/11:00am 12.9 9.0 8.6 75 2.1 NNW 19 24 10 13 1020.5 1020.5 0.0
24/10:30am 13.0 9.0 8.9 76 2.1 NNW 20 26 11 14 1021.0 - 0.0
24/10:00am 12.0 7.9 8.5 79 1.7 NNW 20 24 11 13 1021.0 1021.0 0.0
24/09:30am 11.6 8.1 8.6 82 1.5 NNW 17 24 9 13 1020.9 - 0.0
24/09:00am 11.1 6.8 8.0 81 1.5 NNW 20 24 11 13 1020.7 1020.7 0.0
24/08:30am 10.8 6.2 8.0 83 1.4 NNW 22 28 12 15 1020.6 - 0.0
24/08:00am 10.7 6.0 7.9 83 1.4 NNW 22 28 12 15 1020.5 1020.5 0.0
24/07:30am 10.7 6.0 7.9 83 1.4 NNW 22 26 12 14 1020.4 - 0.0
24/07:00am 10.7 7.5 8.6 87 1.0 NNW 15 19 8 10 1020.5 1020.5 0.0
24/06:30am 10.4 8.0 8.7 89 0.8 NW 11 15 6 8 1020.3 - 0.0
24/06:00am 10.6 7.8 8.5 87 1.0 NNW 13 15 7 8 1020.2 1020.2 0.0
24/05:30am 10.5 7.4 8.8 89 0.8 NNW 15 20 8 11 1020.1 - 0.0
24/05:00am 10.6 7.2 9.0 90 0.8 NNW 17 19 9 10 1020.0 1020.0 0.0
24/04:30am 10.6 7.1 8.7 88 0.9 NNW 17 19 9 10 1019.9 - 0.0
24/04:00am 10.9 7.1 9.0 88 0.9 N 19 22 10 12 1019.8 1019.8 0.0
24/03:30am 11.5 8.1 9.2 86 1.2 NNW 17 20 9 11 1019.7 - 0.0
24/03:00am 11.5 7.7 9.1 85 1.2 NNW 19 22 10 12 1019.6 1019.6 0.0
24/02:30am 11.6 8.7 9.7 88 1.0 NNW 15 20 8 11 1019.8 - 0.0
24/02:00am 11.6 8.7 9.5 87 1.1 NW 15 20 8 11 1020.2 1020.2 0.0
24/01:30am 12.0 8.7 9.7 86 1.2 NNW 17 20 9 11 1020.3 - 0.0
24/01:00am 12.3 9.5 10.0 86 1.2 NNW 15 20 8 11 1020.6 1020.6 0.0
24/12:30am 12.4 9.2 10.0 85 1.2 NNW 17 19 9 10 1020.9 - 0.0
24/12:00am 12.5 9.8 10.2 86 1.2 NNW 15 19 8 10 1021.3 1021.3 0.0
 
Date/Time
EST
Tmp

°C
App
Tmp
°C
Dew
Point
°C
Rel
Hum
%
Delta-T

°C
Wind Press
QNH
hPa
Press
MSL
hPa
Rain
since
9 am
mm
Dir
 
Spd
km/h
Gust
km/h
Spd
kts
Gust
kts
23/11:30pm 12.4 10.1 10.3 87 1.1 NNW 13 19 7 10 1021.8 - 0.0
23/11:00pm 12.8 10.5 10.5 86 1.2 NW 13 17 7 9 1022.0 1022.0 0.0
23/10:30pm 12.5 10.5 10.0 85 1.3 NW 11 15 6 8 1022.2 - 0.0
23/10:00pm 12.5 10.4 9.9 84 1.3 NW 11 15 6 8 1022.3 1022.3 0.0
23/09:30pm 12.6 9.7 9.8 83 1.4 NW 15 17 8 9 1022.3 - 0.0
23/09:00pm 12.7 11.0 9.9 83 1.4 NW 9 11 5 6 1022.2 1022.2 0.0
23/08:30pm 12.9 11.2 9.9 82 1.5 NW 9 11 5 6 1022.2 - 0.0
23/08:00pm 13.2 10.9 9.1 76 2.1 NNW 11 19 6 10 1022.3 1022.3 0.0
23/07:30pm 13.4 10.6 8.5 72 2.5 N 13 17 7 9 1022.2 - 0.0
23/07:00pm 13.3 10.4 8.2 71 2.5 N 13 15 7 8 1022.1 1022.1 0.0
23/06:30pm 13.5 11.0 8.1 70 2.7 NNE 11 15 6 8 1022.0 - 0.0
23/06:00pm 13.3 10.6 7.3 67 2.9 N 11 17 6 9 1021.9 1021.9 0.0
23/05:30pm 13.4 11.1 7.4 67 2.9 NNE 9 11 5 6 1021.5 - 0.0
23/05:00pm 13.5 11.5 7.3 66 3.0 NNE 7 11 4 6 1021.4 1021.4 0.0
23/04:30pm 13.5 11.5 7.3 66 3.0 NE 7 11 4 6 1021.4 - 0.0
23/04:00pm 13.6 11.6 7.2 65 3.1 NNE 7 11 4 6 1021.4 1021.4 0.0
23/03:30pm 13.8 11.8 6.9 63 3.4 NNE 7 9 4 5 1021.4 - 0.0
23/03:00pm 14.2 12.1 6.8 61 3.6 NE 7 11 4 6 1021.5 1021.5 0.0
23/02:30pm 14.3 11.8 6.6 60 3.7 NE 9 13 5 7 1021.5 - 0.0
23/02:00pm 14.2 12.0 6.3 59 3.8 ENE 7 11 4 6 1021.6 1021.6 0.0
23/01:30pm 14.2 12.1 6.8 61 3.6 ENE 7 11 4 6 1021.9 - 0.0
23/01:00pm 14.2 12.1 6.6 60 3.7 E 7 11 4 6 1022.3 1022.3 0.0
23/12:30pm 13.8 11.8 6.4 61 3.6 E 6 9 3 5 1022.8 - 0.0
23/12:00pm 14.1 12.2 6.9 62 3.5 E 6 7 3 4 1023.4 1023.4 0.0
23/11:30am 14.2 12.7 7.0 62 3.5 E 4 7 2 4 1024.0 - 0.0
23/11:00am 14.3 12.8 6.6 60 3.7 NE 4 6 2 3 1024.5 1024.5 0.0
23/10:30am 14.6 12.8 7.2 61 3.6 W 6 9 3 5 1024.8 - 0.0
23/10:00am 13.8 11.8 6.9 63 3.3 W 7 11 4 6 1025.0 1025.0 0.0
23/09:30am 13.4 11.2 7.8 69 2.8 W 9 11 5 6 1024.9 - 0.0
23/09:00am 12.5 10.3 7.8 73 2.3 W 9 11 5 6 1024.7 1024.7 0.0
23/08:30am 12.4 10.4 8.5 77 1.9 WSW 9 13 5 7 1024.6 - 0.0
23/08:00am 11.4 9.7 8.4 82 1.5 W 7 9 4 5 1024.4 1024.4 0.0
23/07:30am 10.4 8.7 8.5 88 0.9 W 7 9 4 5 1024.4 - 0.0
23/07:00am 9.8 7.9 7.7 87 1.0 WNW 7 9 4 5 1024.3 1024.3 0.0
23/06:30am 9.9 7.6 7.5 85 1.1 W 9 11 5 6 1023.9 - 0.0
23/06:00am 10.1 8.1 7.3 83 1.3 W 7 9 4 5 1023.5 1023.5 0.0
23/05:30am 10.6 8.1 8.4 86 1.1 W 11 13 6 7 1023.5 - 0.0
23/05:00am 10.3 8.6 8.4 88 0.9 W 7 11 4 6 1023.3 1023.3 0.0
23/04:30am 10.6 8.9 8.5 87 1.0 W 7 9 4 5 1023.1 - 0.0
23/04:00am 10.9 9.5 8.8 87 1.0 SW 6 9 3 5 1023.0 1023.0 0.0
23/03:30am 10.8 9.1 8.4 85 1.2 WSW 7 9 4 5 1023.0 - 0.0
23/03:00am 10.9 8.8 8.1 83 1.4 WSW 9 11 5 6 1023.1 1023.1 0.0
23/02:30am 11.1 9.0 8.3 83 1.4 WSW 9 11 5 6 1023.5 - 0.0
23/02:00am 11.3 8.4 8.3 82 1.5 W 13 17 7 9 1023.6 1023.6 0.0
23/01:30am 11.6 9.5 8.1 79 1.7 SW 9 11 5 6 1023.8 - 0.0
23/01:00am 11.9 9.3 7.8 76 2.0 SW 11 15 6 8 1023.8 1023.8 0.0
23/12:30am 12.1 9.6 8.4 78 1.8 WSW 11 15 6 8 1024.1 - 0.0
23/12:00am 12.1 9.3 8.6 79 1.7 WSW 13 19 7 10 1024.4 1024.4 0.0
 
Date/Time
EST
Tmp

°C
App
Tmp
°C
Dew
Point
°C
Rel
Hum
%
Delta-T

°C
Wind Press
QNH
hPa
Press
MSL
hPa
Rain
since
9 am
mm
Dir
 
Spd
km/h
Gust
km/h
Spd
kts
Gust
kts
22/11:30pm 12.1 8.2 8.8 80 1.6 W 19 24 10 13 1024.5 - 0.0
22/11:00pm 12.3 7.5 8.8 79 1.7 WSW 24 28 13 15 1024.5 1024.5 0.0
22/10:30pm 12.2 7.4 8.7 79 1.7 SW 24 28 13 15 1024.4 - 0.0
22/10:00pm 12.2 8.6 8.3 77 1.9 WSW 17 24 9 13 1024.3 1024.3 0.0
22/09:30pm 12.6 9.8 8.5 76 2.0 SW 13 17 7 9 1024.2 - 0.0
22/09:00pm 12.9 10.2 8.8 76 2.0 SW 13 19 7 10 1024.3 1024.3 0.0
22/08:30pm 12.9 10.1 8.4 74 2.2 SW 13 17 7 9 1024.3 - 0.0
22/08:00pm 13.1 10.0 7.3 68 2.8 S 13 17 7 9 1024.2 1024.2 0.0
22/07:30pm 13.6 9.7 7.2 65 3.1 S 17 20 9 11 1024.2 - 0.0
22/07:00pm 13.5 10.1 7.7 68 2.8 S 15 20 8 11 1024.3 1024.3 0.0
22/06:30pm 13.6 9.2 7.6 67 3.0 S 20 26 11 14 1024.1 - 0.0
22/06:00pm 13.6 9.5 7.8 68 2.9 S 19 22 10 12 1023.7 1023.7 0.0
22/05:30pm 13.1 8.7 6.7 65 3.1 S 19 24 10 13 1023.5 - 0.0
22/05:00pm 13.3 8.6 6.2 62 3.4 S 20 26 11 14 1023.3 1023.3 0.0
22/04:30pm 13.4 8.7 6.0 61 3.5 S 20 28 11 15 1023.2 - 0.0
22/04:00pm 13.6 9.1 6.9 64 3.2 S 20 28 11 15 1023.1 1023.1 0.0
22/03:30pm 13.8 8.3 5.7 58 3.8 SSE 24 32 13 17 1022.9 - 0.0
22/03:00pm 13.8 9.3 6.2 60 3.6 S 19 24 10 13 1022.9 1022.9 0.0
22/02:30pm 14.0 9.3 5.9 58 3.9 S 20 26 11 14 1022.7 - 0.0
22/02:00pm 14.4 9.9 6.3 58 3.9 S 19 24 10 13 1022.7 1022.7 0.0
22/01:30pm 14.6 10.3 7.2 61 3.6 S 19 22 10 12 1022.8 - 0.0
22/01:00pm 14.2 10.2 6.8 61 3.6 SSW 17 22 9 12 1023.1 1023.1 0.0
22/12:30pm 14.1 9.6 6.9 62 3.5 SSW 20 24 11 13 1023.5 - 0.0
22/12:00pm 14.0 9.6 7.5 65 3.2 SW 20 26 11 14 1023.9 1023.9 0.0
22/11:30am 13.8 9.5 8.0 68 2.9 SW 20 26 11 14 1024.4 - 0.0
22/11:00am 13.2 9.2 8.1 71 2.5 SSW 19 24 10 13 1024.7 1024.7 0.0
22/10:30am 12.8 8.0 7.5 70 2.6 SSW 22 28 12 15 1025.1 - 0.0
22/10:00am 12.4 7.7 7.7 73 2.3 SSW 22 26 12 14 1025.1 1025.1 0.0
22/09:30am 12.0 7.9 7.7 75 2.1 SSW 19 22 10 12 1025.2 - 0.0
22/09:00am 12.1 8.0 8.0 76 2.0 SW 19 24 10 13 1024.9 1024.9 0.0
22/08:30am 11.7 7.5 7.6 76 2.0 SW 19 22 10 12 1024.8 - 0.0
22/08:00am 10.9 7.2 8.1 83 1.4 SW 17 22 9 12 1024.5 1024.5 0.0
22/07:30am 10.9 7.3 8.5 85 1.2 SW 17 20 9 11 1024.2 - 0.0
22/07:00am 10.5 7.6 8.3 86 1.1 SW 13 17 7 9 1023.9 1023.9 0.0
22/06:30am 10.4 7.9 8.0 85 1.2 SW 11 15 6 8 1023.7 - 0.0
22/06:00am 10.4 7.9 8.3 87 1.0 SW 11 15 6 8 1023.5 1023.5 0.0
22/05:30am 10.5 8.0 8.3 86 1.1 SW 11 13 6 7 1023.4 - 0.0
22/05:00am 10.7 8.7 8.5 86 1.1 WSW 9 11 5 6 1023.3 1023.3 0.0
22/04:30am 10.8 8.4 8.6 86 1.1 SW 11 15 6 8 1023.2 - 0.0
22/04:00am 10.7 7.9 8.5 86 1.1 SW 13 15 7 8 1023.1 1023.1 0.0
22/03:30am 10.8 7.7 8.7 87 1.0 SSW 15 19 8 10 1023.2 - 0.0
22/03:00am 11.2 8.5 8.8 85 1.2 SSW 13 15 7 8 1023.2 1023.2 0.0
22/02:30am 11.3 8.9 8.7 84 1.3 SSW 11 13 6 7 1023.3 - 0.0
22/02:00am 11.1 9.1 8.5 84 1.3 S 9 11 5 6 1023.5 1023.5 0.0
22/01:30am 11.3 9.7 8.7 84 1.3 SSW 7 9 4 5 1023.6 - 0.0
22/01:00am 11.4 10.4 8.8 84 1.3 SW 4 7 2 4 1023.7 1023.7 0.0
22/12:30am 11.6 9.6 8.6 82 1.5 WSW 9 11 5 6 1023.7 - 0.0
22/12:00am 11.5 9.4 8.4 81 1.5 WSW 9 11 5 6 1023.9 1023.9 0.0
 
Date/Time
EST
Tmp

°C
App
Tmp
°C
Dew
Point
°C
Rel
Hum
%
Delta-T

°C
Wind Press
QNH
hPa
Press
MSL
hPa
Rain
since
9 am
mm
Dir
 
Spd
km/h
Gust
km/h
Spd
kts
Gust
kts
21/11:30pm 11.8 9.4 8.5 80 1.6 WSW 11 13 6 7 1024.2 - 0.0
21/11:00pm 12.0 8.8 8.5 79 1.7 SW 15 20 8 11 1024.3 1024.3 0.0
21/10:30pm 12.3 8.3 8.2 76 2.0 SW 19 20 10 11 1024.3 - 0.0
21/10:00pm 12.4 8.8 8.3 76 2.0 SW 17 19 9 10 1024.5 1024.5 0.0
21/09:30pm 12.3 8.7 8.2 76 2.0 SW 17 20 9 11 1024.6 - 0.0
21/09:00pm 12.2 8.3 8.7 79 1.7 SW 19 20 10 11 1024.7 1024.7 0.0
21/08:30pm 12.2 9.0 8.5 78 1.8 SW 15 17 8 9 1024.7 - 0.0
21/08:00pm 12.4 9.6 8.7 78 1.8 WSW 13 15 7 8 1024.6 1024.6 0.0
21/07:30pm 12.4 10.0 8.7 78 1.8 WSW 11 15 6 8 1024.5 - 0.0
21/07:00pm 12.4 10.0 8.5 77 1.9 SW 11 15 6 8 1024.4 1024.4 0.0
21/06:30pm 12.5 10.4 8.4 76 2.0 SW 9 13 5 7 1024.2 - 0.0
21/06:00pm 12.7 10.6 8.4 75 2.1 SW 9 11 5 6 1024.0 1024.0 0.0
21/05:30pm 12.7 10.9 8.0 73 2.3 SW 7 9 4 5 1023.8 - 0.0
21/05:00pm 13.1 11.5 7.8 70 2.6 S 6 7 3 4 1023.5 1023.5 0.0
21/04:30pm 13.5 12.6 7.7 68 2.9 E 2 6 1 3 1023.5 - 0.0
21/04:00pm 13.6 11.9 7.6 67 2.9 E 6 7 3 4 1023.5 1023.5 0.0
21/03:30pm 13.3 12.5 8.0 70 2.6 ESE 2 4 1 2 1023.4 - 0.0
21/03:00pm 13.3 12.1 8.2 71 2.5 ESE 4 6 2 3 1023.4 1023.4 0.0
21/02:30pm 13.7 12.1 8.1 69 2.8 E 6 7 3 4 1023.4 - 0.0
21/02:00pm 14.0 12.4 8.0 67 3.0 ESE 6 9 3 5 1023.5 1023.5 0.0
21/01:30pm 13.3 11.5 7.1 66 3.0 E 6 9 3 5 1023.8 - 0.0
21/01:00pm 14.0 12.3 7.5 65 3.2 E 6 7 3 4 1024.0 1024.0 0.0
21/12:30pm 13.3 11.4 6.9 65 3.1 ESE 6 9 3 5 1024.5 - 0.0

Latest Capital City Observations: Canberra | Sydney | Melbourne | Brisbane | Adelaide | Perth | Hobart | Darwin

Other Formats:

Comma delimited format used in spreadsheet applications
http://www.bom.gov.au/fwo/IDN60903/IDN60903.94939.axf

JavaScript Object Notation format (JSON) in row-major order
http://www.bom.gov.au/fwo/IDN60903/IDN60903.94939.json